createdAt,value
2022-10-20T00:01:16.200Z,93681.06
2022-10-20T00:03:43.558Z,93683.16
2022-10-20T00:06:19.005Z,93668.03
2022-10-20T00:08:46.428Z,93669.31
2022-10-20T00:11:16.385Z,93672.22
2022-10-20T00:13:45.189Z,93620.25
2022-10-20T00:16:12.177Z,93651.00
2022-10-20T00:18:38.949Z,93642.03
2022-10-20T00:21:11.107Z,93655.94
2022-10-20T00:23:37.696Z,93664.84
2022-10-20T00:26:16.184Z,93663.28
2022-10-20T00:28:43.871Z,93662.69
2022-10-20T00:31:11.603Z,93657.75
2022-10-20T00:33:38.392Z,93655.91
2022-10-20T00:36:08.009Z,93625.66
2022-10-20T00:38:35.300Z,93626.63
2022-10-20T00:41:04.750Z,93636.06
2022-10-20T00:43:53.431Z,93638.78
2022-10-20T00:46:23.235Z,93629.75
2022-10-20T00:48:56.420Z,93637.88
2022-10-20T00:51:27.028Z,93631.78
2022-10-20T00:53:59.131Z,93640.75
2022-10-20T00:56:26.080Z,93637.47
2022-10-20T00:58:52.941Z,93642.19
2022-10-20T01:01:19.712Z,93626.03
2022-10-20T01:03:51.627Z,93640.28
2022-10-20T01:06:22.198Z,93637.41
2022-10-20T01:08:51.420Z,93598.38
2022-10-20T01:11:23.956Z,93627.38
2022-10-20T01:14:02.616Z,93617.38
2022-10-20T01:16:37.846Z,93619.91
2022-10-20T01:19:23.079Z,93613.59
2022-10-20T01:22:27.359Z,93609.28
2022-10-20T01:25:12.388Z,93620.13
2022-10-20T01:27:48.203Z,93618.06
2022-10-20T01:30:17.205Z,93616.63
2022-10-20T01:32:53.136Z,93605.25
2022-10-20T01:35:33.946Z,93592.53
2022-10-20T01:38:19.828Z,93600.25
2022-10-20T01:40:49.415Z,93603.03
2022-10-20T01:43:20.229Z,93604.44
2022-10-20T01:45:49.658Z,93610.72
2022-10-20T01:48:21.264Z,93624.00
2022-10-20T01:50:49.767Z,93615.91
2022-10-20T01:53:17.322Z,93613.63
2022-10-20T01:55:44.171Z,93613.94
2022-10-20T01:58:29.213Z,93613.88
2022-10-20T02:01:22.044Z,93616.13
2022-10-20T02:03:57.960Z,93610.13
2022-10-20T02:06:46.504Z,93596.50
2022-10-20T02:09:41.076Z,93611.63
2022-10-20T02:12:13.440Z,93593.06
2022-10-20T02:14:41.991Z,93607.84
2022-10-20T02:17:14.196Z,93605.91
2022-10-20T02:19:43.896Z,93617.94
2022-10-20T02:22:13.810Z,93608.78
2022-10-20T02:24:42.596Z,93612.53
2022-10-20T02:27:15.327Z,93602.25
2022-10-20T02:29:53.447Z,93598.91
2022-10-20T02:32:21.449Z,93580.84
2022-10-20T02:34:48.283Z,93611.69
2022-10-20T02:39:41.559Z,93608.34
2022-10-20T02:42:10.000Z,93606.78
2022-10-20T02:44:36.620Z,93601.56
2022-10-20T02:47:03.859Z,93593.84
2022-10-20T02:49:30.517Z,93558.31
2022-10-20T02:51:57.510Z,93560.47
2022-10-20T02:54:24.351Z,93583.81
2022-10-20T02:56:50.931Z,93587.06
2022-10-20T02:59:17.513Z,93577.66
2022-10-20T03:01:44.467Z,93538.00
2022-10-20T03:04:11.799Z,93550.22
2022-10-20T03:06:38.817Z,93565.59
2022-10-20T03:09:05.711Z,93551.19
2022-10-20T03:11:32.468Z,93500.69
2022-10-20T03:13:59.214Z,93574.91
2022-10-20T03:16:26.003Z,93580.00
2022-10-20T03:18:52.881Z,93572.13
2022-10-20T03:21:19.534Z,93578.56
2022-10-20T03:23:46.429Z,93551.75
2022-10-20T03:26:13.503Z,93568.91
2022-10-20T03:28:40.536Z,93551.78
2022-10-20T03:31:07.903Z,93560.44
2022-10-20T03:33:34.743Z,93571.50
2022-10-20T03:36:01.391Z,93568.97
2022-10-20T03:38:28.187Z,93567.31
2022-10-20T03:40:54.959Z,93579.16
2022-10-20T03:43:21.584Z,93572.47
2022-10-20T03:45:48.211Z,93573.53
2022-10-20T03:48:14.855Z,93556.56
2022-10-20T03:50:43.208Z,93573.53
2022-10-20T03:53:14.169Z,93568.19
2022-10-20T03:55:40.780Z,93557.34
2022-10-20T03:58:07.424Z,93524.09
2022-10-20T04:00:34.088Z,93547.44
2022-10-20T04:03:00.720Z,93546.69
2022-10-20T04:05:27.487Z,93562.03
2022-10-20T04:07:54.163Z,93567.94
2022-10-20T04:10:20.911Z,93558.31
2022-10-20T04:12:47.577Z,93554.03
2022-10-20T04:15:14.227Z,93532.16
2022-10-20T04:17:41.037Z,93529.88
2022-10-20T04:20:08.147Z,93529.94
2022-10-20T04:22:35.057Z,93549.31
2022-10-20T04:25:02.260Z,93525.38
2022-10-20T04:27:29.378Z,93549.47
2022-10-20T04:29:56.099Z,93551.03
2022-10-20T04:32:22.746Z,93548.03
2022-10-20T04:34:49.355Z,93544.50
2022-10-20T04:37:16.145Z,93523.34
2022-10-20T04:39:42.829Z,93518.78
2022-10-20T04:42:09.546Z,93519.16
2022-10-20T04:44:36.234Z,93510.59
2022-10-20T04:47:02.846Z,93505.38
2022-10-20T04:49:29.480Z,93497.84
2022-10-20T04:52:00.597Z,93503.09
2022-10-20T04:54:27.558Z,93505.06
2022-10-20T04:56:54.390Z,93502.09
2022-10-20T04:59:21.201Z,93503.50
2022-10-20T05:01:47.856Z,93502.88
2022-10-20T05:04:20.891Z,93481.06
2022-10-20T05:06:48.840Z,93484.19
2022-10-20T05:09:16.585Z,93462.56
2022-10-20T05:11:43.841Z,93474.34
2022-10-20T05:14:10.556Z,93498.63
2022-10-20T05:16:37.615Z,93488.41
2022-10-20T05:19:04.468Z,93486.19
2022-10-20T05:21:31.684Z,93490.53
2022-10-20T05:24:03.527Z,93497.69
2022-10-20T05:26:34.772Z,93470.81
2022-10-20T05:29:02.291Z,93500.56
2022-10-20T05:31:28.941Z,93513.03
2022-10-20T05:33:56.781Z,93506.13
2022-10-20T05:36:27.072Z,93510.25
2022-10-20T05:38:55.474Z,93513.47
2022-10-20T05:41:24.706Z,93514.81
2022-10-20T05:43:53.898Z,93523.31
2022-10-20T05:46:20.954Z,93522.53
2022-10-20T05:48:47.676Z,93518.78
2022-10-20T05:51:16.726Z,93511.44
2022-10-20T05:53:44.276Z,93480.44
2022-10-20T05:56:13.482Z,93503.56
2022-10-20T05:58:40.539Z,93497.84
2022-10-20T06:01:17.196Z,93516.84
2022-10-20T06:03:51.907Z,93525.34
2022-10-20T06:06:20.523Z,93531.06
2022-10-20T06:08:47.909Z,93516.59
2022-10-20T06:11:15.566Z,93524.03
2022-10-20T06:13:42.684Z,93525.28
2022-10-20T06:16:11.975Z,93526.44
2022-10-20T06:18:39.028Z,93516.91
2022-10-20T06:21:11.891Z,93535.66
2022-10-20T06:23:38.711Z,93557.81
2022-10-20T06:26:08.714Z,93571.41
2022-10-20T06:28:36.807Z,93577.69
2022-10-20T06:31:13.966Z,93576.09
2022-10-20T06:33:41.072Z,93567.69
2022-10-20T06:36:08.686Z,93585.16
2022-10-20T06:38:35.535Z,93592.09
2022-10-20T06:41:07.036Z,93589.66
2022-10-20T06:43:33.710Z,93592.31
2022-10-20T06:46:02.367Z,93596.22
2022-10-20T06:48:29.509Z,93577.81
2022-10-20T06:50:57.699Z,93619.44
2022-10-20T06:53:24.962Z,93623.81
2022-10-20T06:56:23.695Z,93640.31
2022-10-20T06:58:52.280Z,93617.91
2022-10-20T07:01:29.175Z,93619.59
2022-10-20T07:03:58.292Z,93616.53
2022-10-20T07:06:30.176Z,93625.75
2022-10-20T07:08:58.252Z,93648.41
2022-10-20T07:11:30.144Z,93641.22
2022-10-20T07:14:01.150Z,93649.84
2022-10-20T07:16:30.804Z,93677.63
2022-10-20T07:18:58.031Z,93652.88
2022-10-20T07:21:34.600Z,93681.53
2022-10-20T07:24:05.454Z,93690.53
2022-10-20T07:26:34.903Z,93701.34
2022-10-20T07:29:02.885Z,93671.13
2022-10-20T07:31:34.042Z,93672.34
2022-10-20T07:34:13.028Z,93652.31
2022-10-20T07:36:46.853Z,93661.94
2022-10-20T07:39:13.595Z,93658.28
2022-10-20T07:41:40.599Z,93670.94
2022-10-20T07:44:07.791Z,93661.31
2022-10-20T07:46:34.868Z,93667.47
2022-10-20T07:51:48.157Z,93665.44
2022-10-20T07:54:14.928Z,93665.22
2022-10-20T07:56:43.129Z,93657.28
2022-10-20T07:59:13.264Z,93649.69
2022-10-20T08:01:40.358Z,93657.47
2022-10-20T08:04:07.031Z,93650.50
2022-10-20T08:06:33.922Z,93668.47
2022-10-20T08:09:00.698Z,93663.81
2022-10-20T08:11:27.479Z,93649.09
2022-10-20T08:13:54.108Z,93657.09
2022-10-20T08:16:33.889Z,93663.41
2022-10-20T08:21:44.508Z,93632.31
2022-10-20T08:24:11.211Z,93651.75
2022-10-20T08:26:37.801Z,93638.66
2022-10-20T08:29:04.679Z,93649.09
2022-10-20T08:31:31.341Z,93642.84
2022-10-20T08:33:58.093Z,93639.91
2022-10-20T08:36:24.810Z,93651.31
2022-10-20T08:38:51.570Z,93620.00
2022-10-20T08:41:22.574Z,93618.63
2022-10-20T08:43:52.783Z,93616.47
2022-10-20T08:46:23.319Z,93608.94
2022-10-20T08:48:50.859Z,93629.09
2022-10-20T08:51:43.949Z,93615.03
2022-10-20T08:54:14.437Z,93619.44
2022-10-20T08:56:41.236Z,93608.31
2022-10-20T08:59:25.267Z,93600.50
2022-10-20T09:01:52.614Z,93597.97
2022-10-20T09:04:32.789Z,93587.94
2022-10-20T09:07:05.699Z,93587.53
2022-10-20T09:09:33.618Z,93590.69
2022-10-20T09:12:05.861Z,93577.09
2022-10-20T09:14:36.266Z,93584.59
2022-10-20T09:17:04.134Z,93587.31
2022-10-20T09:19:32.488Z,93560.16
2022-10-20T09:22:05.515Z,93583.59
2022-10-20T09:24:35.020Z,93586.34
2022-10-20T09:27:25.099Z,93588.72
2022-10-20T09:29:51.756Z,93566.63
2022-10-20T09:32:45.447Z,93579.34
2022-10-20T09:35:26.331Z,93570.38
2022-10-20T09:38:15.047Z,93559.19
2022-10-20T09:41:06.231Z,93552.81
2022-10-20T09:43:33.133Z,93554.81
2022-10-20T09:46:05.840Z,93542.00
2022-10-20T09:48:36.482Z,93527.75
2022-10-20T09:51:07.072Z,93507.22
2022-10-20T09:53:40.491Z,93511.66
2022-10-20T09:56:09.188Z,93497.00
2022-10-20T09:58:39.071Z,93513.66
2022-10-20T10:01:11.597Z,93513.44
2022-10-20T10:03:49.852Z,93506.84
2022-10-20T10:06:37.089Z,93493.53
2022-10-20T10:12:10.419Z,93510.34
2022-10-20T10:14:37.549Z,93505.06
2022-10-20T10:17:04.455Z,93488.72
2022-10-20T10:19:34.043Z,93482.59
2022-10-20T10:22:02.952Z,93480.53
2022-10-20T10:24:43.448Z,93493.94
2022-10-20T10:27:25.924Z,93497.50
2022-10-20T10:29:54.147Z,93483.47
2022-10-20T10:32:27.129Z,93486.03
2022-10-20T10:35:18.443Z,93486.91
2022-10-20T10:37:45.352Z,93491.03
2022-10-20T10:40:16.232Z,93505.88
2022-10-20T10:42:51.219Z,93504.56
2022-10-20T10:45:28.695Z,93498.56
2022-10-20T10:48:18.844Z,93465.75
2022-10-20T10:50:56.319Z,93462.44
2022-10-20T10:53:41.502Z,93478.38
2022-10-20T10:56:37.421Z,93477.56
2022-10-20T10:59:04.011Z,93459.50
2022-10-20T11:02:00.681Z,93441.34
2022-10-20T11:04:45.821Z,93435.66
2022-10-20T11:07:31.147Z,93427.50
2022-10-20T11:10:36.306Z,93423.78
2022-10-20T11:13:24.364Z,93412.09
2022-10-20T11:16:24.456Z,93430.03
2022-10-20T11:18:51.103Z,93392.50
2022-10-20T11:21:29.935Z,93379.34
2022-10-20T11:24:29.292Z,93376.53
2022-10-20T11:27:07.923Z,93376.41
2022-10-20T11:29:53.270Z,93372.44
2022-10-20T11:32:27.174Z,93346.78
2022-10-20T11:35:03.312Z,93316.28
2022-10-20T11:37:41.354Z,93333.28
2022-10-20T11:40:11.041Z,93333.72
2022-10-20T11:42:52.616Z,93353.28
2022-10-20T11:45:25.130Z,93352.03
2022-10-20T11:48:04.382Z,93340.97
2022-10-20T11:50:32.160Z,93345.47
2022-10-20T11:53:14.429Z,93340.84
2022-10-20T11:56:08.971Z,93340.94
2022-10-20T11:59:14.011Z,93323.72
2022-10-20T12:02:13.250Z,93327.50
2022-10-20T12:05:08.571Z,93348.91
2022-10-20T12:08:11.010Z,93337.13
2022-10-20T12:10:52.496Z,93338.75
2022-10-20T12:13:41.023Z,93339.22
2022-10-20T12:16:07.922Z,93334.19
2022-10-20T12:18:36.101Z,93321.53
2022-10-20T12:21:08.188Z,93338.53
2022-10-20T12:23:44.079Z,93349.66
2022-10-20T12:26:33.098Z,93351.75
2022-10-20T12:29:03.308Z,93356.56
2022-10-20T12:32:07.564Z,93362.72
2022-10-20T12:34:41.932Z,93364.81
2022-10-20T12:37:17.465Z,93364.38
2022-10-20T12:39:46.240Z,93372.91
2022-10-20T12:42:30.144Z,93368.97
2022-10-20T12:45:04.823Z,93373.72
2022-10-20T12:47:34.966Z,93377.56
2022-10-20T12:50:08.338Z,93369.66
2022-10-20T12:52:38.903Z,93384.94
2022-10-20T12:55:08.824Z,93386.94
2022-10-20T12:57:41.685Z,93361.00
2022-10-20T13:00:28.869Z,93391.06
2022-10-20T13:02:57.703Z,93378.59
2022-10-20T13:05:29.021Z,93402.19
2022-10-20T13:08:23.044Z,93416.50
2022-10-20T13:10:50.361Z,93424.28
2022-10-20T13:13:20.023Z,93408.13
2022-10-20T13:15:50.245Z,93411.41
2022-10-20T13:18:25.585Z,93386.72
2022-10-20T13:21:00.022Z,93405.34
2022-10-20T13:23:33.919Z,93391.91
2022-10-20T13:26:17.020Z,93380.69
2022-10-20T13:28:49.056Z,93369.38
2022-10-20T13:31:30.201Z,93365.91
2022-10-20T13:34:15.034Z,93349.38
2022-10-20T13:36:57.394Z,93368.97
2022-10-20T13:40:10.638Z,93372.13
2022-10-20T13:42:56.917Z,93379.88
2022-10-20T13:45:32.333Z,93357.47
2022-10-20T13:48:29.304Z,93342.41
2022-10-20T13:51:22.116Z,93333.72
2022-10-20T13:53:52.915Z,93324.03
2022-10-20T13:56:42.979Z,93293.19
2022-10-20T13:59:17.706Z,93296.53
2022-10-20T14:01:59.466Z,93299.31
2022-10-20T14:04:32.579Z,93304.50
2022-10-20T14:07:17.205Z,93305.22
2022-10-20T14:09:47.484Z,93304.88
2022-10-20T14:12:26.821Z,93353.88
2022-10-20T14:15:01.518Z,93345.16
2022-10-20T14:17:28.787Z,93353.16
2022-10-20T14:20:29.195Z,93342.13
2022-10-20T14:22:58.684Z,93334.81
2022-10-20T14:25:26.536Z,93357.13
2022-10-20T14:27:54.991Z,93335.16
2022-10-20T14:30:22.349Z,93335.53
2022-10-20T14:32:50.441Z,93382.09
2022-10-20T14:35:29.648Z,93363.28
2022-10-20T14:38:14.924Z,93356.34
2022-10-20T14:40:48.083Z,93341.03
2022-10-20T14:43:18.439Z,93327.91
2022-10-20T14:45:57.737Z,93360.31
2022-10-20T14:48:29.169Z,93341.53
2022-10-20T14:50:55.837Z,93340.94
2022-10-20T14:53:22.397Z,93347.97
2022-10-20T14:55:49.132Z,93352.09
2022-10-20T14:59:01.198Z,93361.38
2022-10-20T15:01:32.285Z,93370.06
2022-10-20T15:04:04.972Z,93356.69
2022-10-20T15:06:32.089Z,93346.06
2022-10-20T15:08:59.781Z,93343.72
2022-10-20T15:11:28.246Z,93322.31
2022-10-20T15:13:58.953Z,93319.13
2022-10-20T15:16:47.544Z,93307.38
2022-10-20T15:19:23.537Z,93292.84
2022-10-20T15:21:57.819Z,93287.59
2022-10-20T15:24:24.545Z,93319.63
2022-10-20T15:26:51.360Z,93297.34
2022-10-20T15:29:18.539Z,93289.78
2022-10-20T15:31:45.251Z,93294.94
2022-10-20T15:34:12.255Z,93302.72
2022-10-20T15:36:41.993Z,93299.69
2022-10-20T15:39:09.375Z,93283.94
2022-10-20T15:41:37.037Z,93289.03
2022-10-20T15:44:24.139Z,93301.13
2022-10-20T15:46:53.562Z,93296.22
2022-10-20T15:49:21.061Z,93280.66
2022-10-20T15:51:48.786Z,93278.59
2022-10-20T15:54:21.671Z,93285.56
2022-10-20T15:56:48.490Z,93318.06
2022-10-20T15:59:15.300Z,93317.50
2022-10-20T16:01:41.980Z,93325.59
2022-10-20T16:04:35.108Z,93356.25
2022-10-20T16:07:03.055Z,93356.97
2022-10-20T16:09:30.412Z,93339.44
2022-10-20T16:11:57.081Z,93346.19
2022-10-20T16:14:23.837Z,93345.84
2022-10-20T16:16:50.458Z,93334.47
2022-10-20T16:19:17.048Z,93301.34
2022-10-20T16:21:43.659Z,93317.56
2022-10-20T16:24:11.437Z,93326.31
2022-10-20T16:26:38.207Z,93319.72
2022-10-20T16:29:04.966Z,93315.72
2022-10-20T16:31:31.561Z,93326.41
2022-10-20T16:34:00.958Z,93308.84
2022-10-20T16:36:27.744Z,93331.47
2022-10-20T16:38:56.728Z,93362.38
2022-10-20T16:41:23.399Z,93358.19
2022-10-20T16:43:50.024Z,93353.53
2022-10-20T16:46:16.708Z,93372.19
2022-10-20T16:48:47.555Z,93352.59
2022-10-20T16:51:16.037Z,93347.69
2022-10-20T16:53:43.134Z,93374.63
2022-10-20T16:56:10.124Z,93376.84
2022-10-20T16:58:36.858Z,93394.06
2022-10-20T17:01:14.515Z,93372.03
2022-10-20T17:06:11.668Z,93348.00
2022-10-20T17:08:38.936Z,93343.25
2022-10-20T17:11:11.083Z,93353.66
2022-10-20T17:13:39.242Z,93348.13
2022-10-20T17:16:07.656Z,93358.03
2022-10-20T17:18:34.864Z,93350.84
2022-10-20T17:21:01.516Z,93360.25
2022-10-20T17:23:32.007Z,93351.19
2022-10-20T17:26:03.667Z,93343.50
2022-10-20T17:28:32.917Z,93333.50
2022-10-20T17:31:00.041Z,93337.91
2022-10-20T17:33:27.847Z,93336.50
2022-10-20T17:35:56.100Z,93343.84
2022-10-20T17:38:23.842Z,93342.97
2022-10-20T17:40:50.756Z,93349.38
2022-10-20T17:43:18.037Z,93351.22
2022-10-20T17:46:00.353Z,93345.59
2022-10-20T17:48:27.220Z,93354.56
2022-10-20T17:51:00.496Z,93360.94
2022-10-20T17:53:27.199Z,93346.97
2022-10-20T17:55:53.867Z,93350.81
2022-10-20T17:58:20.629Z,93326.25
2022-10-20T18:00:56.162Z,93326.22
2022-10-20T18:03:23.483Z,93372.34
2022-10-20T18:05:50.242Z,93332.75
2022-10-20T18:08:16.882Z,93376.41
2022-10-20T18:10:44.181Z,93395.50
2022-10-20T18:13:11.022Z,93358.63
2022-10-20T18:15:43.910Z,93327.09
2022-10-20T18:18:10.589Z,93314.84
2022-10-20T18:20:37.259Z,93301.66
2022-10-20T18:23:03.933Z,93399.38
2022-10-20T18:25:30.631Z,93367.47
2022-10-20T18:27:57.240Z,93391.38
2022-10-20T18:30:23.848Z,93364.56
2022-10-20T18:32:50.532Z,93361.53
2022-10-20T18:35:17.176Z,93371.31
2022-10-20T18:37:44.907Z,93355.31
2022-10-20T18:40:11.636Z,93347.31
2022-10-20T18:42:38.235Z,93351.91
2022-10-20T18:45:05.259Z,93340.75
2022-10-20T18:47:31.825Z,93346.06
2022-10-20T18:49:58.471Z,93343.47
2022-10-20T18:52:25.158Z,93350.66
2022-10-20T18:54:51.768Z,93299.28
2022-10-20T18:57:18.427Z,93300.31
2022-10-20T18:59:45.231Z,93307.13
2022-10-20T19:02:11.897Z,93290.69
2022-10-20T19:04:38.545Z,93288.56
2022-10-20T19:07:05.997Z,93299.66
2022-10-20T19:09:32.689Z,93294.25
2022-10-20T19:12:00.854Z,93302.34
2022-10-20T19:14:27.668Z,93307.94
2022-10-20T19:16:54.269Z,93280.59
2022-10-20T19:19:22.702Z,93283.03
2022-10-20T19:21:49.409Z,93269.41
2022-10-20T19:24:19.847Z,93285.59
2022-10-20T19:26:57.065Z,93288.63
2022-10-20T19:29:34.642Z,93254.44
2022-10-20T19:32:01.998Z,93282.50
2022-10-20T19:34:30.233Z,93290.28
2022-10-20T19:36:57.386Z,93271.00
2022-10-20T19:39:27.379Z,93268.50
2022-10-20T19:41:55.559Z,93244.28
2022-10-20T19:44:22.535Z,93231.16
2022-10-20T19:46:51.457Z,93220.41
2022-10-20T19:49:19.868Z,93215.03
2022-10-20T19:51:46.639Z,93218.25
2022-10-20T19:54:13.482Z,93226.91
2022-10-20T19:56:40.155Z,93221.81
2022-10-20T19:59:07.110Z,93240.44
2022-10-20T20:01:35.397Z,93249.69
2022-10-20T20:04:02.416Z,93254.13
2022-10-20T20:06:29.059Z,93249.38
2022-10-20T20:09:01.127Z,93245.03
2022-10-20T20:11:30.926Z,93260.03
2022-10-20T20:14:04.547Z,93267.31
2022-10-20T20:16:31.450Z,93275.88
2022-10-20T20:18:58.696Z,93234.22
2022-10-20T20:21:25.944Z,93260.69
2022-10-20T20:24:00.146Z,93240.97
2022-10-20T20:26:29.550Z,93245.72
2022-10-20T20:28:56.965Z,93240.22
2022-10-20T20:31:24.637Z,93240.78
2022-10-20T20:33:52.022Z,93238.88
2022-10-20T20:36:19.069Z,93244.53
2022-10-20T20:38:46.173Z,93253.09
2022-10-20T20:41:16.412Z,93265.47
2022-10-20T20:43:46.896Z,93270.91
2022-10-20T20:46:16.354Z,93273.97
2022-10-20T20:48:43.753Z,93280.13
2022-10-20T20:51:11.477Z,93263.69
2022-10-20T20:53:39.571Z,93266.44
2022-10-20T20:56:11.654Z,93258.75
2022-10-20T20:58:40.595Z,93258.44
2022-10-20T21:01:08.718Z,93260.75
2022-10-20T21:03:35.839Z,93253.00
2022-10-20T21:06:06.948Z,93249.06
2022-10-20T21:08:34.009Z,93247.66
2022-10-20T21:11:09.297Z,93253.13
2022-10-20T21:13:36.888Z,93261.84
2022-10-20T21:16:25.714Z,93259.63
2022-10-20T21:18:55.336Z,93266.06
2022-10-20T21:21:25.050Z,93282.81
2022-10-20T21:23:52.427Z,93291.25
2022-10-20T21:26:21.105Z,93295.78
2022-10-20T21:28:48.447Z,93294.72
2022-10-20T21:31:18.418Z,93307.44
2022-10-20T21:33:46.328Z,93310.09
2022-10-20T21:36:15.668Z,93316.31
2022-10-20T21:38:43.360Z,93314.28
2022-10-20T21:41:21.380Z,93311.94
2022-10-20T21:43:50.792Z,93290.00
2022-10-20T21:46:32.111Z,93317.06
2022-10-20T21:49:12.293Z,93316.94
2022-10-20T21:51:41.933Z,93304.09
2022-10-20T21:54:12.833Z,93307.94
2022-10-20T21:56:41.392Z,93306.84
2022-10-20T21:59:14.287Z,93323.34
2022-10-20T22:01:40.868Z,93310.00
2022-10-20T22:04:07.476Z,93310.63
2022-10-20T22:06:36.087Z,93331.78
2022-10-20T22:09:02.999Z,93325.78
2022-10-20T22:11:33.433Z,93333.78
2022-10-20T22:14:00.037Z,93329.72
2022-10-20T22:16:30.042Z,93315.84
2022-10-20T22:19:18.190Z,93329.25
2022-10-20T22:21:47.336Z,93342.53
2022-10-20T22:24:14.707Z,93326.25
2022-10-20T22:26:41.781Z,93326.31
2022-10-20T22:29:12.107Z,93328.06
2022-10-20T22:31:39.826Z,93316.97
2022-10-20T22:34:07.696Z,93341.94
2022-10-20T22:36:34.719Z,93336.47
2022-10-20T22:39:01.471Z,93342.59
2022-10-20T22:41:28.186Z,93349.81
2022-10-20T22:43:54.751Z,93319.75
2022-10-20T22:46:21.380Z,93313.34
2022-10-20T22:48:48.334Z,93307.53
2022-10-20T22:51:15.823Z,93315.53
2022-10-20T22:53:43.249Z,93297.94
2022-10-20T22:56:15.471Z,93296.91
2022-10-20T22:58:42.395Z,93295.97
2022-10-20T23:01:14.485Z,93262.19
2022-10-20T23:03:41.753Z,93280.56
2022-10-20T23:06:23.362Z,93285.75
2022-10-20T23:08:53.105Z,93275.25
2022-10-20T23:11:20.285Z,93275.63
2022-10-20T23:13:47.373Z,93270.00
2022-10-20T23:16:14.729Z,93283.16
2022-10-20T23:18:41.558Z,93277.53
2022-10-20T23:21:08.493Z,93282.84
2022-10-20T23:23:37.301Z,93282.94
2022-10-20T23:26:05.761Z,93286.72
2022-10-20T23:28:33.624Z,93267.16
2022-10-20T23:31:12.315Z,93291.91
2022-10-20T23:33:40.114Z,93282.19
2022-10-20T23:36:07.409Z,93264.38
2022-10-20T23:38:34.661Z,93292.56
2022-10-20T23:41:01.399Z,93297.56
2022-10-20T23:43:28.100Z,93292.78
2022-10-20T23:45:54.820Z,93303.13
2022-10-20T23:48:21.507Z,93284.47
2022-10-20T23:50:48.112Z,93299.03
2022-10-20T23:53:14.795Z,93283.13
2022-10-20T23:55:42.657Z,93263.75
2022-10-20T23:58:09.636Z,93275.91
